sensor_id;sensor_type;location;lat;lon;timestamp;P1;durP1;ratioP1;P2;durP2;ratioP2
56736;SDS011;42618;51.226;4.910;2023-01-30T00:01:45;25.25;;;12.30;;
56736;SDS011;42618;51.226;4.910;2023-01-30T00:04:12;29.85;;;13.18;;
56736;SDS011;42618;51.226;4.910;2023-01-30T00:06:43;27.90;;;14.43;;
56736;SDS011;42618;51.226;4.910;2023-01-30T00:09:13;31.88;;;15.27;;
56736;SDS011;42618;51.226;4.910;2023-01-30T00:11:46;24.17;;;12.18;;
56736;SDS011;42618;51.226;4.910;2023-01-30T00:14:14;27.90;;;13.05;;
56736;SDS011;42618;51.226;4.910;2023-01-30T00:16:41;29.85;;;13.07;;
56736;SDS011;42618;51.226;4.910;2023-01-30T00:19:09;27.40;;;14.73;;
56736;SDS011;42618;51.226;4.910;2023-01-30T00:21:39;26.92;;;15.77;;
56736;SDS011;42618;51.226;4.910;2023-01-30T00:24:08;30.20;;;12.98;;
56736;SDS011;42618;51.226;4.910;2023-01-30T00:26:37;29.17;;;16.58;;
56736;SDS011;42618;51.226;4.910;2023-01-30T00:29:07;29.10;;;14.63;;
56736;SDS011;42618;51.226;4.910;2023-01-30T00:31:35;31.48;;;14.45;;
56736;SDS011;42618;51.226;4.910;2023-01-30T00:34:07;18.40;;;9.73;;
56736;SDS011;42618;51.226;4.910;2023-01-30T00:39:01;32.47;;;19.50;;
56736;SDS011;42618;51.226;4.910;2023-01-30T00:41:31;29.05;;;13.35;;
56736;SDS011;42618;51.226;4.910;2023-01-30T00:44:17;28.83;;;14.38;;
56736;SDS011;42618;51.226;4.910;2023-01-30T00:47:02;32.75;;;14.35;;
56736;SDS011;42618;51.226;4.910;2023-01-30T00:49:32;33.17;;;15.68;;
56736;SDS011;42618;51.226;4.910;2023-01-30T00:52:00;21.60;;;11.30;;
56736;SDS011;42618;51.226;4.910;2023-01-30T00:54:30;24.13;;;12.43;;
56736;SDS011;42618;51.226;4.910;2023-01-30T00:57:02;41.00;;;16.65;;
56736;SDS011;42618;51.226;4.910;2023-01-30T00:59:30;33.20;;;15.85;;
56736;SDS011;42618;51.226;4.910;2023-01-30T01:01:58;26.48;;;13.25;;
56736;SDS011;42618;51.226;4.910;2023-01-30T01:04:28;26.95;;;13.27;;
56736;SDS011;42618;51.226;4.910;2023-01-30T01:06:57;24.05;;;11.23;;
56736;SDS011;42618;51.226;4.910;2023-01-30T01:09:25;30.20;;;14.07;;
56736;SDS011;42618;51.226;4.910;2023-01-30T01:11:54;24.13;;;11.02;;
56736;SDS011;42618;51.226;4.910;2023-01-30T01:14:21;23.88;;;12.25;;
56736;SDS011;42618;51.226;4.910;2023-01-30T01:16:50;33.22;;;14.80;;
56736;SDS011;42618;51.226;4.910;2023-01-30T01:19:21;31.15;;;12.90;;
56736;SDS011;42618;51.226;4.910;2023-01-30T01:21:51;30.77;;;12.35;;
56736;SDS011;42618;51.226;4.910;2023-01-30T01:24:18;21.90;;;10.60;;
56736;SDS011;42618;51.226;4.910;2023-01-30T01:26:47;28.00;;;12.85;;
56736;SDS011;42618;51.226;4.910;2023-01-30T01:29:17;24.55;;;11.43;;
56736;SDS011;42618;51.226;4.910;2023-01-30T01:31:48;25.50;;;14.23;;
56736;SDS011;42618;51.226;4.910;2023-01-30T01:34:17;26.63;;;12.60;;
56736;SDS011;42618;51.226;4.910;2023-01-30T01:36:47;34.17;;;14.43;;
56736;SDS011;42618;51.226;4.910;2023-01-30T01:39:20;25.17;;;11.88;;
56736;SDS011;42618;51.226;4.910;2023-01-30T01:41:49;26.42;;;13.15;;
56736;SDS011;42618;51.226;4.910;2023-01-30T01:44:16;22.73;;;12.15;;
56736;SDS011;42618;51.226;4.910;2023-01-30T01:46:55;30.10;;;13.77;;
56736;SDS011;42618;51.226;4.910;2023-01-30T01:49:26;23.35;;;12.25;;
56736;SDS011;42618;51.226;4.910;2023-01-30T01:51:58;21.27;;;10.77;;
56736;SDS011;42618;51.226;4.910;2023-01-30T01:54:35;24.23;;;10.00;;
56736;SDS011;42618;51.226;4.910;2023-01-30T01:57:08;25.52;;;12.23;;
56736;SDS011;42618;51.226;4.910;2023-01-30T01:59:49;30.50;;;13.57;;
56736;SDS011;42618;51.226;4.910;2023-01-30T02:02:25;21.08;;;9.77;;
56736;SDS011;42618;51.226;4.910;2023-01-30T02:04:54;22.80;;;11.82;;
56736;SDS011;42618;51.226;4.910;2023-01-30T02:07:44;25.13;;;11.45;;
56736;SDS011;42618;51.226;4.910;2023-01-30T02:10:21;25.98;;;12.18;;
56736;SDS011;42618;51.226;4.910;2023-01-30T02:12:51;27.60;;;12.38;;
56736;SDS011;42618;51.226;4.910;2023-01-30T02:15:21;22.63;;;9.98;;
56736;SDS011;42618;51.226;4.910;2023-01-30T02:31:59;28.30;;;12.75;;
56736;SDS011;42618;51.226;4.910;2023-01-30T02:37:53;23.27;;;11.02;;
56736;SDS011;42618;51.226;4.910;2023-01-30T02:46:24;25.65;;;11.85;;
56736;SDS011;42618;51.226;4.910;2023-01-30T02:51:45;27.55;;;11.27;;
56736;SDS011;42618;51.226;4.910;2023-01-30T02:54:15;21.48;;;9.95;;
56736;SDS011;42618;51.226;4.910;2023-01-30T02:56:52;21.55;;;10.95;;
56736;SDS011;42618;51.226;4.910;2023-01-30T03:05:26;22.52;;;11.70;;
56736;SDS011;42618;51.226;4.910;2023-01-30T03:10:59;19.17;;;8.75;;
56736;SDS011;42618;51.226;4.910;2023-01-30T03:13:37;21.10;;;11.30;;
56736;SDS011;42618;51.226;4.910;2023-01-30T03:16:24;22.45;;;9.25;;
56736;SDS011;42618;51.226;4.910;2023-01-30T03:18:58;22.85;;;12.40;;
56736;SDS011;42618;51.226;4.910;2023-01-30T03:21:28;19.02;;;8.60;;
56736;SDS011;42618;51.226;4.910;2023-01-30T03:23:57;23.05;;;10.95;;
56736;SDS011;42618;51.226;4.910;2023-01-30T03:26:26;28.40;;;12.57;;
56736;SDS011;42618;51.226;4.910;2023-01-30T03:28:59;22.40;;;11.27;;
56736;SDS011;42618;51.226;4.910;2023-01-30T03:31:28;21.65;;;9.35;;
56736;SDS011;42618;51.226;4.910;2023-01-30T03:36:27;20.42;;;9.93;;
56736;SDS011;42618;51.226;4.910;2023-01-30T03:38:58;28.52;;;11.48;;
56736;SDS011;42618;51.226;4.910;2023-01-30T03:41:30;20.58;;;9.75;;
56736;SDS011;42618;51.226;4.910;2023-01-30T03:44:00;21.45;;;9.30;;
56736;SDS011;42618;51.226;4.910;2023-01-30T03:46:28;20.38;;;10.15;;
56736;SDS011;42618;51.226;4.910;2023-01-30T03:48:57;26.13;;;9.57;;
56736;SDS011;42618;51.226;4.910;2023-01-30T03:51:25;20.65;;;11.35;;
56736;SDS011;42618;51.226;4.910;2023-01-30T03:53:52;28.25;;;10.88;;
56736;SDS011;42618;51.226;4.910;2023-01-30T03:56:22;18.15;;;10.25;;
56736;SDS011;42618;51.226;4.910;2023-01-30T03:58:51;23.63;;;10.02;;
56736;SDS011;42618;51.226;4.910;2023-01-30T04:01:28;20.15;;;11.10;;
56736;SDS011;42618;51.226;4.910;2023-01-30T04:03:55;27.05;;;10.73;;
56736;SDS011;42618;51.226;4.910;2023-01-30T04:06:24;23.35;;;10.45;;
56736;SDS011;42618;51.226;4.910;2023-01-30T04:08:52;15.88;;;9.25;;
56736;SDS011;42618;51.226;4.910;2023-01-30T04:11:32;17.90;;;9.27;;
56736;SDS011;42618;51.226;4.910;2023-01-30T04:14:01;18.58;;;9.30;;
56736;SDS011;42618;51.226;4.910;2023-01-30T04:16:32;22.67;;;10.02;;
56736;SDS011;42618;51.226;4.910;2023-01-30T04:19:18;15.48;;;7.63;;
56736;SDS011;42618;51.226;4.910;2023-01-30T04:21:46;23.70;;;11.00;;
56736;SDS011;42618;51.226;4.910;2023-01-30T04:24:18;19.83;;;7.50;;
56736;SDS011;42618;51.226;4.910;2023-01-30T04:26:46;19.70;;;10.45;;
56736;SDS011;42618;51.226;4.910;2023-01-30T04:29:19;14.13;;;8.30;;
56736;SDS011;42618;51.226;4.910;2023-01-30T04:31:50;19.70;;;9.25;;
56736;SDS011;42618;51.226;4.910;2023-01-30T04:34:25;26.92;;;10.32;;
56736;SDS011;42618;51.226;4.910;2023-01-30T04:36:54;16.15;;;8.68;;
56736;SDS011;42618;51.226;4.910;2023-01-30T04:39:24;20.80;;;8.20;;
56736;SDS011;42618;51.226;4.910;2023-01-30T04:41:52;21.52;;;9.60;;
56736;SDS011;42618;51.226;4.910;2023-01-30T04:44:21;20.45;;;8.07;;
56736;SDS011;42618;51.226;4.910;2023-01-30T04:46:56;11.60;;;5.60;;
56736;SDS011;42618;51.226;4.910;2023-01-30T04:49:24;18.42;;;9.15;;
56736;SDS011;42618;51.226;4.910;2023-01-30T04:51:54;12.57;;;6.43;;
56736;SDS011;42618;51.226;4.910;2023-01-30T04:54:23;17.55;;;8.70;;
56736;SDS011;42618;51.226;4.910;2023-01-30T04:56:51;15.50;;;7.95;;
56736;SDS011;42618;51.226;4.910;2023-01-30T04:59:21;22.65;;;9.88;;
56736;SDS011;42618;51.226;4.910;2023-01-30T05:01:50;15.40;;;9.07;;
56736;SDS011;42618;51.226;4.910;2023-01-30T05:04:18;24.48;;;10.05;;
56736;SDS011;42618;51.226;4.910;2023-01-30T05:11:42;17.40;;;8.95;;
56736;SDS011;42618;51.226;4.910;2023-01-30T05:16:36;16.37;;;8.83;;
56736;SDS011;42618;51.226;4.910;2023-01-30T05:19:04;21.33;;;9.65;;
56736;SDS011;42618;51.226;4.910;2023-01-30T05:21:32;13.48;;;7.18;;
56736;SDS011;42618;51.226;4.910;2023-01-30T05:24:01;18.63;;;9.52;;
56736;SDS011;42618;51.226;4.910;2023-01-30T05:26:30;21.95;;;11.23;;
56736;SDS011;42618;51.226;4.910;2023-01-30T05:28:58;29.67;;;12.23;;
56736;SDS011;42618;51.226;4.910;2023-01-30T05:31:27;19.15;;;9.02;;
56736;SDS011;42618;51.226;4.910;2023-01-30T05:33:55;15.60;;;7.78;;
56736;SDS011;42618;51.226;4.910;2023-01-30T05:36:25;18.13;;;8.23;;
56736;SDS011;42618;51.226;4.910;2023-01-30T05:38:57;23.73;;;11.60;;
56736;SDS011;42618;51.226;4.910;2023-01-30T05:41:26;24.27;;;11.82;;
56736;SDS011;42618;51.226;4.910;2023-01-30T05:43:53;18.38;;;10.13;;
56736;SDS011;42618;51.226;4.910;2023-01-30T05:46:23;25.38;;;12.50;;
56736;SDS011;42618;51.226;4.910;2023-01-30T05:48:52;28.42;;;12.70;;
56736;SDS011;42618;51.226;4.910;2023-01-30T05:51:20;22.13;;;10.07;;
56736;SDS011;42618;51.226;4.910;2023-01-30T05:53:55;16.52;;;8.68;;
56736;SDS011;42618;51.226;4.910;2023-01-30T05:56:21;23.67;;;10.75;;
56736;SDS011;42618;51.226;4.910;2023-01-30T05:58:53;17.27;;;7.70;;
56736;SDS011;42618;51.226;4.910;2023-01-30T06:01:21;16.23;;;7.18;;
56736;SDS011;42618;51.226;4.910;2023-01-30T06:03:48;11.60;;;6.90;;
56736;SDS011;42618;51.226;4.910;2023-01-30T06:06:19;23.38;;;10.98;;
56736;SDS011;42618;51.226;4.910;2023-01-30T06:08:54;18.33;;;8.10;;
56736;SDS011;42618;51.226;4.910;2023-01-30T06:11:21;17.00;;;9.25;;
56736;SDS011;42618;51.226;4.910;2023-01-30T06:13:51;16.83;;;8.57;;
56736;SDS011;42618;51.226;4.910;2023-01-30T06:16:18;22.67;;;8.63;;
56736;SDS011;42618;51.226;4.910;2023-01-30T06:18:48;26.75;;;8.75;;
56736;SDS011;42618;51.226;4.910;2023-01-30T06:21:16;15.73;;;5.93;;
56736;SDS011;42618;51.226;4.910;2023-01-30T06:23:46;9.43;;;4.57;;
56736;SDS011;42618;51.226;4.910;2023-01-30T06:26:14;23.25;;;7.35;;
56736;SDS011;42618;51.226;4.910;2023-01-30T06:28:44;10.93;;;5.45;;
56736;SDS011;42618;51.226;4.910;2023-01-30T06:31:14;13.88;;;5.55;;
56736;SDS011;42618;51.226;4.910;2023-01-30T06:33:42;15.52;;;4.80;;
56736;SDS011;42618;51.226;4.910;2023-01-30T06:36:10;12.20;;;3.30;;
56736;SDS011;42618;51.226;4.910;2023-01-30T06:38:39;10.10;;;2.78;;
56736;SDS011;42618;51.226;4.910;2023-01-30T06:41:09;6.15;;;1.83;;
56736;SDS011;42618;51.226;4.910;2023-01-30T06:43:40;7.93;;;1.58;;
56736;SDS011;42618;51.226;4.910;2023-01-30T06:46:07;4.97;;;1.65;;
56736;SDS011;42618;51.226;4.910;2023-01-30T06:48:36;3.97;;;1.20;;
56736;SDS011;42618;51.226;4.910;2023-01-30T06:51:08;12.30;;;1.77;;
56736;SDS011;42618;51.226;4.910;2023-01-30T06:53:37;12.57;;;1.55;;
56736;SDS011;42618;51.226;4.910;2023-01-30T06:56:06;8.75;;;1.48;;
56736;SDS011;42618;51.226;4.910;2023-01-30T06:58:33;14.07;;;1.88;;
56736;SDS011;42618;51.226;4.910;2023-01-30T07:01:00;11.10;;;1.67;;
56736;SDS011;42618;51.226;4.910;2023-01-30T07:03:29;9.80;;;1.95;;
56736;SDS011;42618;51.226;4.910;2023-01-30T07:05:56;6.15;;;1.40;;
56736;SDS011;42618;51.226;4.910;2023-01-30T07:08:24;6.55;;;1.02;;
56736;SDS011;42618;51.226;4.910;2023-01-30T07:10:52;7.35;;;1.20;;
56736;SDS011;42618;51.226;4.910;2023-01-30T07:13:19;9.30;;;1.00;;
56736;SDS011;42618;51.226;4.910;2023-01-30T07:15:47;13.15;;;1.52;;
56736;SDS011;42618;51.226;4.910;2023-01-30T07:18:15;9.48;;;1.27;;
56736;SDS011;42618;51.226;4.910;2023-01-30T07:20:48;9.52;;;1.50;;
56736;SDS011;42618;51.226;4.910;2023-01-30T07:23:17;15.02;;;2.28;;
56736;SDS011;42618;51.226;4.910;2023-01-30T07:25:44;8.57;;;0.75;;
56736;SDS011;42618;51.226;4.910;2023-01-30T07:28:13;9.80;;;1.30;;
56736;SDS011;42618;51.226;4.910;2023-01-30T07:33:09;3.10;;;1.08;;
56736;SDS011;42618;51.226;4.910;2023-01-30T07:35:37;5.63;;;1.27;;
56736;SDS011;42618;51.226;4.910;2023-01-30T07:38:07;10.77;;;2.67;;
56736;SDS011;42618;51.226;4.910;2023-01-30T07:40:34;8.02;;;1.08;;
56736;SDS011;42618;51.226;4.910;2023-01-30T07:43:07;2.20;;;0.70;;
56736;SDS011;42618;51.226;4.910;2023-01-30T07:45:46;12.88;;;1.17;;
56736;SDS011;42618;51.226;4.910;2023-01-30T07:48:15;13.18;;;1.30;;
56736;SDS011;42618;51.226;4.910;2023-01-30T07:50:44;15.00;;;1.55;;
56736;SDS011;42618;51.226;4.910;2023-01-30T07:53:14;8.93;;;2.70;;
56736;SDS011;42618;51.226;4.910;2023-01-30T07:55:42;13.85;;;3.03;;
56736;SDS011;42618;51.226;4.910;2023-01-30T07:58:14;12.68;;;1.48;;
56736;SDS011;42618;51.226;4.910;2023-01-30T08:00:44;11.20;;;1.08;;
56736;SDS011;42618;51.226;4.910;2023-01-30T08:03:14;14.98;;;5.60;;
56736;SDS011;42618;51.226;4.910;2023-01-30T08:05:46;17.35;;;5.10;;
56736;SDS011;42618;51.226;4.910;2023-01-30T08:08:16;11.35;;;4.22;;
56736;SDS011;42618;51.226;4.910;2023-01-30T08:10:43;10.00;;;2.03;;
56736;SDS011;42618;51.226;4.910;2023-01-30T08:13:10;10.85;;;2.15;;
56736;SDS011;42618;51.226;4.910;2023-01-30T08:15:40;13.90;;;2.05;;
56736;SDS011;42618;51.226;4.910;2023-01-30T08:18:09;16.80;;;5.30;;
56736;SDS011;42618;51.226;4.910;2023-01-30T08:20:38;21.77;;;4.07;;
56736;SDS011;42618;51.226;4.910;2023-01-30T08:23:05;11.85;;;2.28;;
56736;SDS011;42618;51.226;4.910;2023-01-30T08:25:32;20.55;;;5.03;;
56736;SDS011;42618;51.226;4.910;2023-01-30T08:28:02;17.35;;;5.38;;
56736;SDS011;42618;51.226;4.910;2023-01-30T08:30:35;28.00;;;8.27;;
56736;SDS011;42618;51.226;4.910;2023-01-30T08:33:02;17.70;;;5.57;;
56736;SDS011;42618;51.226;4.910;2023-01-30T08:35:32;14.52;;;3.50;;
56736;SDS011;42618;51.226;4.910;2023-01-30T08:38:00;16.42;;;2.25;;
56736;SDS011;42618;51.226;4.910;2023-01-30T08:40:31;18.27;;;3.85;;
56736;SDS011;42618;51.226;4.910;2023-01-30T08:42:58;17.23;;;2.35;;
56736;SDS011;42618;51.226;4.910;2023-01-30T08:45:24;15.60;;;2.53;;
56736;SDS011;42618;51.226;4.910;2023-01-30T08:47:52;14.27;;;1.92;;
56736;SDS011;42618;51.226;4.910;2023-01-30T08:50:24;9.18;;;1.63;;
56736;SDS011;42618;51.226;4.910;2023-01-30T08:52:55;9.00;;;2.38;;
56736;SDS011;42618;51.226;4.910;2023-01-30T08:55:23;11.30;;;2.22;;
56736;SDS011;42618;51.226;4.910;2023-01-30T08:57:51;12.93;;;2.08;;
56736;SDS011;42618;51.226;4.910;2023-01-30T09:00:27;14.93;;;2.30;;
56736;SDS011;42618;51.226;4.910;2023-01-30T09:02:56;9.48;;;2.03;;
56736;SDS011;42618;51.226;4.910;2023-01-30T09:05:24;12.10;;;1.60;;
56736;SDS011;42618;51.226;4.910;2023-01-30T09:10:20;10.52;;;1.83;;
56736;SDS011;42618;51.226;4.910;2023-01-30T09:12:49;5.70;;;0.82;;
56736;SDS011;42618;51.226;4.910;2023-01-30T09:15:18;8.90;;;1.10;;
56736;SDS011;42618;51.226;4.910;2023-01-30T09:17:46;13.90;;;1.77;;
56736;SDS011;42618;51.226;4.910;2023-01-30T09:22:43;9.38;;;1.80;;
56736;SDS011;42618;51.226;4.910;2023-01-30T09:25:10;8.80;;;1.23;;
56736;SDS011;42618;51.226;4.910;2023-01-30T09:27:37;10.23;;;1.70;;
56736;SDS011;42618;51.226;4.910;2023-01-30T09:30:08;9.60;;;1.63;;
56736;SDS011;42618;51.226;4.910;2023-01-30T09:32:37;9.30;;;1.38;;
56736;SDS011;42618;51.226;4.910;2023-01-30T09:35:04;10.35;;;1.20;;
56736;SDS011;42618;51.226;4.910;2023-01-30T09:37:34;9.82;;;1.33;;
56736;SDS011;42618;51.226;4.910;2023-01-30T09:40:05;11.38;;;2.08;;
56736;SDS011;42618;51.226;4.910;2023-01-30T09:45:42;17.63;;;1.77;;
56736;SDS011;42618;51.226;4.910;2023-01-30T09:48:21;14.70;;;1.10;;
56736;SDS011;42618;51.226;4.910;2023-01-30T09:59:51;29.95;;;10.52;;
56736;SDS011;42618;51.226;4.910;2023-01-30T10:05:18;12.10;;;1.92;;
56736;SDS011;42618;51.226;4.910;2023-01-30T10:10:50;17.30;;;4.93;;
56736;SDS011;42618;51.226;4.910;2023-01-30T10:22:27;23.90;;;8.93;;
56736;SDS011;42618;51.226;4.910;2023-01-30T10:31:03;8.13;;;1.45;;
56736;SDS011;42618;51.226;4.910;2023-01-30T10:33:37;9.70;;;2.08;;
56736;SDS011;42618;51.226;4.910;2023-01-30T10:36:19;6.68;;;0.93;;
56736;SDS011;42618;51.226;4.910;2023-01-30T10:38:56;8.18;;;0.75;;
56736;SDS011;42618;51.226;4.910;2023-01-30T10:41:34;9.25;;;0.73;;
56736;SDS011;42618;51.226;4.910;2023-01-30T10:44:09;13.32;;;0.90;;
56736;SDS011;42618;51.226;4.910;2023-01-30T10:49:38;10.93;;;1.08;;
56736;SDS011;42618;51.226;4.910;2023-01-30T10:52:26;7.32;;;0.70;;
56736;SDS011;42618;51.226;4.910;2023-01-30T11:00:32;5.93;;;0.60;;
56736;SDS011;42618;51.226;4.910;2023-01-30T11:03:20;10.77;;;1.20;;
56736;SDS011;42618;51.226;4.910;2023-01-30T11:06:12;13.55;;;1.35;;
56736;SDS011;42618;51.226;4.910;2023-01-30T11:08:43;10.73;;;1.05;;
56736;SDS011;42618;51.226;4.910;2023-01-30T11:11:28;6.97;;;1.38;;
56736;SDS011;42618;51.226;4.910;2023-01-30T11:14:05;9.52;;;0.80;;
56736;SDS011;42618;51.226;4.910;2023-01-30T11:16:42;12.35;;;1.50;;
56736;SDS011;42618;51.226;4.910;2023-01-30T11:19:13;9.70;;;0.85;;
56736;SDS011;42618;51.226;4.910;2023-01-30T11:21:48;13.00;;;1.17;;
56736;SDS011;42618;51.226;4.910;2023-01-30T11:24:19;12.60;;;1.25;;
56736;SDS011;42618;51.226;4.910;2023-01-30T11:26:51;12.32;;;1.25;;
56736;SDS011;42618;51.226;4.910;2023-01-30T11:31:59;6.78;;;1.08;;
56736;SDS011;42618;51.226;4.910;2023-01-30T11:34:30;5.32;;;0.75;;
56736;SDS011;42618;51.226;4.910;2023-01-30T11:39:58;15.02;;;1.70;;
56736;SDS011;42618;51.226;4.910;2023-01-30T11:42:35;11.30;;;3.60;;
56736;SDS011;42618;51.226;4.910;2023-01-30T11:45:04;10.70;;;1.60;;
56736;SDS011;42618;51.226;4.910;2023-01-30T11:47:52;7.22;;;1.42;;
56736;SDS011;42618;51.226;4.910;2023-01-30T11:50:37;13.27;;;1.00;;
56736;SDS011;42618;51.226;4.910;2023-01-30T11:55:56;5.95;;;1.20;;
56736;SDS011;42618;51.226;4.910;2023-01-30T11:58:53;15.65;;;3.10;;
56736;SDS011;42618;51.226;4.910;2023-01-30T12:01:25;10.15;;;1.75;;
56736;SDS011;42618;51.226;4.910;2023-01-30T12:03:56;7.70;;;0.90;;
56736;SDS011;42618;51.226;4.910;2023-01-30T12:09:02;7.47;;;1.33;;
56736;SDS011;42618;51.226;4.910;2023-01-30T12:17:03;9.32;;;0.98;;
56736;SDS011;42618;51.226;4.910;2023-01-30T12:25:26;12.30;;;1.67;;
56736;SDS011;42618;51.226;4.910;2023-01-30T12:28:02;10.85;;;2.03;;
56736;SDS011;42618;51.226;4.910;2023-01-30T12:30:42;7.18;;;1.10;;
56736;SDS011;42618;51.226;4.910;2023-01-30T12:33:25;7.85;;;1.23;;
56736;SDS011;42618;51.226;4.910;2023-01-30T12:41:31;12.82;;;1.75;;
56736;SDS011;42618;51.226;4.910;2023-01-30T12:55:35;11.60;;;1.27;;
56736;SDS011;42618;51.226;4.910;2023-01-30T12:58:06;11.68;;;1.45;;
56736;SDS011;42618;51.226;4.910;2023-01-30T13:00:51;13.45;;;2.15;;
56736;SDS011;42618;51.226;4.910;2023-01-30T13:09:14;15.57;;;1.65;;
56736;SDS011;42618;51.226;4.910;2023-01-30T13:17:40;14.15;;;2.30;;
56736;SDS011;42618;51.226;4.910;2023-01-30T13:20:16;18.38;;;4.53;;
56736;SDS011;42618;51.226;4.910;2023-01-30T13:26:12;20.30;;;2.95;;
56736;SDS011;42618;51.226;4.910;2023-01-30T13:28:50;7.25;;;0.90;;
56736;SDS011;42618;51.226;4.910;2023-01-30T13:31:23;7.88;;;0.77;;
56736;SDS011;42618;51.226;4.910;2023-01-30T13:34:03;8.38;;;1.25;;
56736;SDS011;42618;51.226;4.910;2023-01-30T13:36:39;5.13;;;0.57;;
56736;SDS011;42618;51.226;4.910;2023-01-30T13:42:13;12.80;;;1.58;;
56736;SDS011;42618;51.226;4.910;2023-01-30T13:44:47;10.25;;;1.08;;
56736;SDS011;42618;51.226;4.910;2023-01-30T13:50:15;9.00;;;0.70;;
56736;SDS011;42618;51.226;4.910;2023-01-30T13:55:33;15.32;;;1.17;;
56736;SDS011;42618;51.226;4.910;2023-01-30T13:58:39;10.98;;;1.27;;
56736;SDS011;42618;51.226;4.910;2023-01-30T14:01:13;11.00;;;1.48;;
56736;SDS011;42618;51.226;4.910;2023-01-30T14:03:43;10.65;;;1.17;;
56736;SDS011;42618;51.226;4.910;2023-01-30T14:06:31;10.45;;;1.35;;
56736;SDS011;42618;51.226;4.910;2023-01-30T14:09:16;14.18;;;1.20;;
56736;SDS011;42618;51.226;4.910;2023-01-30T14:11:57;9.32;;;1.35;;
56736;SDS011;42618;51.226;4.910;2023-01-30T14:14:33;8.95;;;1.35;;
56736;SDS011;42618;51.226;4.910;2023-01-30T14:17:09;16.08;;;1.42;;
56736;SDS011;42618;51.226;4.910;2023-01-30T14:20:18;8.35;;;1.70;;
56736;SDS011;42618;51.226;4.910;2023-01-30T14:22:52;11.10;;;1.40;;
56736;SDS011;42618;51.226;4.910;2023-01-30T14:25:33;11.15;;;1.63;;
56736;SDS011;42618;51.226;4.910;2023-01-30T14:38:29;12.82;;;1.20;;
56736;SDS011;42618;51.226;4.910;2023-01-30T14:51:34;14.00;;;2.08;;
56736;SDS011;42618;51.226;4.910;2023-01-30T14:56:51;12.27;;;3.30;;
56736;SDS011;42618;51.226;4.910;2023-01-30T14:59:28;16.90;;;4.03;;
56736;SDS011;42618;51.226;4.910;2023-01-30T15:07:30;14.05;;;5.38;;
56736;SDS011;42618;51.226;4.910;2023-01-30T15:21:57;11.18;;;0.98;;
56736;SDS011;42618;51.226;4.910;2023-01-30T15:27:42;6.70;;;0.60;;
56736;SDS011;42618;51.226;4.910;2023-01-30T15:30:47;6.63;;;1.25;;
56736;SDS011;42618;51.226;4.910;2023-01-30T15:33:25;13.98;;;1.40;;
56736;SDS011;42618;51.226;4.910;2023-01-30T15:35:58;14.43;;;2.05;;
56736;SDS011;42618;51.226;4.910;2023-01-30T15:38:30;19.63;;;3.65;;
56736;SDS011;42618;51.226;4.910;2023-01-30T15:41:04;17.15;;;3.63;;
56736;SDS011;42618;51.226;4.910;2023-01-30T15:52:20;17.30;;;1.40;;
56736;SDS011;42618;51.226;4.910;2023-01-30T15:54:55;14.32;;;1.48;;
56736;SDS011;42618;51.226;4.910;2023-01-30T15:57:31;14.02;;;1.75;;
56736;SDS011;42618;51.226;4.910;2023-01-30T16:00:06;9.20;;;1.45;;
56736;SDS011;42618;51.226;4.910;2023-01-30T16:02:47;7.80;;;0.98;;
56736;SDS011;42618;51.226;4.910;2023-01-30T16:05:16;11.82;;;1.70;;
56736;SDS011;42618;51.226;4.910;2023-01-30T16:07:47;14.77;;;1.30;;
56736;SDS011;42618;51.226;4.910;2023-01-30T16:10:18;13.27;;;1.05;;
56736;SDS011;42618;51.226;4.910;2023-01-30T16:12:50;19.42;;;2.10;;
56736;SDS011;42618;51.226;4.910;2023-01-30T16:15:26;13.88;;;1.77;;
56736;SDS011;42618;51.226;4.910;2023-01-30T16:18:08;18.67;;;5.35;;
56736;SDS011;42618;51.226;4.910;2023-01-30T16:21:36;78.53;;;20.40;;
56736;SDS011;42618;51.226;4.910;2023-01-30T16:26:26;83.32;;;17.30;;
56736;SDS011;42618;51.226;4.910;2023-01-30T16:29:14;139.05;;;26.27;;
56736;SDS011;42618;51.226;4.910;2023-01-30T16:31:45;46.00;;;8.32;;
56736;SDS011;42618;51.226;4.910;2023-01-30T16:34:24;59.70;;;15.88;;
56736;SDS011;42618;51.226;4.910;2023-01-30T16:37:04;49.53;;;18.35;;
56736;SDS011;42618;51.226;4.910;2023-01-30T16:40:00;26.35;;;8.30;;
56736;SDS011;42618;51.226;4.910;2023-01-30T16:42:39;19.35;;;4.07;;
56736;SDS011;42618;51.226;4.910;2023-01-30T16:47:36;12.10;;;1.77;;
56736;SDS011;42618;51.226;4.910;2023-01-30T16:50:15;17.10;;;2.05;;
56736;SDS011;42618;51.226;4.910;2023-01-30T16:52:51;17.45;;;2.25;;
56736;SDS011;42618;51.226;4.910;2023-01-30T16:55:22;20.20;;;3.53;;
56736;SDS011;42618;51.226;4.910;2023-01-30T16:57:54;20.73;;;4.80;;
56736;SDS011;42618;51.226;4.910;2023-01-30T17:00:34;20.88;;;3.28;;
56736;SDS011;42618;51.226;4.910;2023-01-30T17:03:05;17.92;;;3.75;;
56736;SDS011;42618;51.226;4.910;2023-01-30T17:05:45;16.85;;;3.65;;
56736;SDS011;42618;51.226;4.910;2023-01-30T17:11:35;13.23;;;2.17;;
56736;SDS011;42618;51.226;4.910;2023-01-30T17:14:09;20.75;;;3.13;;
56736;SDS011;42618;51.226;4.910;2023-01-30T17:19:35;33.33;;;10.63;;
56736;SDS011;42618;51.226;4.910;2023-01-30T17:22:24;17.17;;;2.88;;
56736;SDS011;42618;51.226;4.910;2023-01-30T17:24:52;85.82;;;20.13;;
56736;SDS011;42618;51.226;4.910;2023-01-30T17:27:39;15.85;;;2.80;;
56736;SDS011;42618;51.226;4.910;2023-01-30T17:30:12;15.70;;;2.85;;
56736;SDS011;42618;51.226;4.910;2023-01-30T17:32:43;21.15;;;2.85;;
56736;SDS011;42618;51.226;4.910;2023-01-30T17:35:11;10.88;;;2.30;;
56736;SDS011;42618;51.226;4.910;2023-01-30T17:37:38;25.13;;;3.53;;
56736;SDS011;42618;51.226;4.910;2023-01-30T17:40:16;11.55;;;2.47;;
56736;SDS011;42618;51.226;4.910;2023-01-30T17:42:47;11.02;;;2.22;;
56736;SDS011;42618;51.226;4.910;2023-01-30T17:45:16;18.08;;;3.28;;
56736;SDS011;42618;51.226;4.910;2023-01-30T17:47:44;18.10;;;3.08;;
56736;SDS011;42618;51.226;4.910;2023-01-30T17:50:15;24.52;;;3.80;;
56736;SDS011;42618;51.226;4.910;2023-01-30T17:52:43;29.35;;;8.15;;
56736;SDS011;42618;51.226;4.910;2023-01-30T17:55:13;18.98;;;4.45;;
56736;SDS011;42618;51.226;4.910;2023-01-30T17:57:42;20.90;;;4.20;;
56736;SDS011;42618;51.226;4.910;2023-01-30T18:00:16;24.13;;;4.82;;
56736;SDS011;42618;51.226;4.910;2023-01-30T18:02:45;27.50;;;4.40;;
56736;SDS011;42618;51.226;4.910;2023-01-30T18:05:13;19.63;;;5.45;;
56736;SDS011;42618;51.226;4.910;2023-01-30T18:07:43;22.02;;;3.20;;
56736;SDS011;42618;51.226;4.910;2023-01-30T18:10:26;19.08;;;2.85;;
56736;SDS011;42618;51.226;4.910;2023-01-30T18:12:59;12.90;;;3.85;;
56736;SDS011;42618;51.226;4.910;2023-01-30T18:15:28;21.60;;;2.88;;
56736;SDS011;42618;51.226;4.910;2023-01-30T18:18:00;20.50;;;4.95;;
56736;SDS011;42618;51.226;4.910;2023-01-30T18:20:28;19.25;;;4.78;;
56736;SDS011;42618;51.226;4.910;2023-01-30T18:22:56;18.20;;;4.82;;
56736;SDS011;42618;51.226;4.910;2023-01-30T18:25:25;17.00;;;3.33;;
56736;SDS011;42618;51.226;4.910;2023-01-30T18:27:56;18.23;;;4.03;;
56736;SDS011;42618;51.226;4.910;2023-01-30T18:30:24;16.48;;;3.22;;
56736;SDS011;42618;51.226;4.910;2023-01-30T18:35:20;22.13;;;3.55;;
56736;SDS011;42618;51.226;4.910;2023-01-30T18:37:50;20.48;;;2.85;;
56736;SDS011;42618;51.226;4.910;2023-01-30T18:40:18;17.23;;;2.90;;
56736;SDS011;42618;51.226;4.910;2023-01-30T18:42:51;17.92;;;3.13;;
56736;SDS011;42618;51.226;4.910;2023-01-30T18:45:20;21.85;;;3.90;;
56736;SDS011;42618;51.226;4.910;2023-01-30T18:47:48;25.75;;;3.65;;
56736;SDS011;42618;51.226;4.910;2023-01-30T18:50:19;17.02;;;2.90;;